createdAt,value
2022-10-28T00:01:19.425Z,99443.81
2022-10-28T00:03:52.373Z,99440.28
2022-10-28T00:06:24.683Z,99442.41
2022-10-28T00:08:52.194Z,99435.94
2022-10-28T00:11:32.422Z,99437.78
2022-10-28T00:14:06.616Z,99439.69
2022-10-28T00:16:37.197Z,99443.56
2022-10-28T00:19:07.395Z,99444.03
2022-10-28T00:21:37.213Z,99436.06
2022-10-28T00:24:05.550Z,99442.94
2022-10-28T00:26:36.285Z,99447.84
2022-10-28T00:29:13.231Z,99451.56
2022-10-28T00:31:41.167Z,99449.06
2022-10-28T00:34:13.393Z,99441.16
2022-10-28T00:36:43.626Z,99448.34
2022-10-28T00:39:14.689Z,99447.84
2022-10-28T00:41:49.493Z,99452.06
2022-10-28T00:44:53.961Z,99456.13
2022-10-28T00:47:40.400Z,99457.25
2022-10-28T00:50:38.797Z,99462.09
2022-10-28T00:53:25.248Z,99455.75
2022-10-28T00:55:53.094Z,99463.72
2022-10-28T00:58:24.956Z,99449.91
2022-10-28T01:00:51.893Z,99458.75
2022-10-28T01:03:18.748Z,99447.06
2022-10-28T01:05:49.094Z,99451.78
2022-10-28T01:08:16.989Z,99455.00
2022-10-28T01:11:32.387Z,99445.63
2022-10-28T01:14:45.180Z,99445.63
2022-10-28T01:17:43.087Z,99443.09
2022-10-28T01:20:37.813Z,99444.31
2022-10-28T01:23:14.186Z,99443.50
2022-10-28T01:26:06.013Z,99439.50
2022-10-28T01:29:33.329Z,99442.13
2022-10-28T01:32:43.927Z,99431.72
2022-10-28T01:35:27.430Z,99439.78
2022-10-28T01:38:28.145Z,99438.06
2022-10-28T01:41:34.577Z,99436.88
2022-10-28T01:44:52.836Z,99429.81
2022-10-28T01:47:57.626Z,99428.50
2022-10-28T01:50:50.515Z,99434.66
2022-10-28T01:53:23.979Z,99424.75
2022-10-28T01:55:55.397Z,99430.50
2022-10-28T01:58:29.702Z,99433.84
2022-10-28T02:00:59.880Z,99420.69
2022-10-28T02:03:28.093Z,99425.53
2022-10-28T02:06:00.516Z,99415.47
2022-10-28T02:09:07.881Z,99423.81
2022-10-28T02:11:55.183Z,99422.03
2022-10-28T02:14:56.625Z,99427.66
2022-10-28T02:17:59.290Z,99419.69
2022-10-28T02:21:05.805Z,99425.34
2022-10-28T02:23:58.930Z,99412.38
2022-10-28T02:26:36.777Z,99422.91
2022-10-28T02:29:15.095Z,99424.72
2022-10-28T02:31:55.766Z,99427.66
2022-10-28T02:34:32.101Z,99432.59
2022-10-28T02:37:06.889Z,99430.38
2022-10-28T02:39:42.373Z,99430.47
2022-10-28T02:42:24.161Z,99418.44
2022-10-28T02:45:01.487Z,99417.72
2022-10-28T02:47:37.185Z,99424.13
2022-10-28T02:50:12.661Z,99420.47
2022-10-28T02:52:44.909Z,99426.53
2022-10-28T02:55:11.787Z,99420.56
2022-10-28T02:57:44.695Z,99426.03
2022-10-28T03:00:19.599Z,99426.03
2022-10-28T03:02:46.974Z,99435.16
2022-10-28T03:05:14.391Z,99421.50
2022-10-28T03:07:41.640Z,99427.75
2022-10-28T03:10:09.981Z,99414.03
2022-10-28T03:12:36.803Z,99413.41
2022-10-28T03:15:04.523Z,99410.38
2022-10-28T03:17:31.578Z,99412.50
2022-10-28T03:19:58.446Z,99407.25
2022-10-28T03:22:25.428Z,99390.91
2022-10-28T03:24:52.182Z,99387.84
2022-10-28T03:27:18.944Z,99372.09
2022-10-28T03:29:46.139Z,99383.22
2022-10-28T03:32:13.938Z,99380.16
2022-10-28T03:34:41.083Z,99383.38
2022-10-28T03:37:08.174Z,99375.69
2022-10-28T03:39:35.798Z,99385.63
2022-10-28T03:42:02.577Z,99377.31
2022-10-28T03:44:29.438Z,99383.28
2022-10-28T03:46:56.256Z,99387.59
2022-10-28T03:49:23.132Z,99379.13
2022-10-28T03:51:49.883Z,99380.75
2022-10-28T03:54:16.735Z,99380.03
2022-10-28T03:56:43.516Z,99374.59
2022-10-28T03:59:10.583Z,99376.69
2022-10-28T04:01:37.538Z,99373.06
2022-10-28T04:04:04.698Z,99374.84
2022-10-28T04:06:31.465Z,99380.00
2022-10-28T04:08:58.443Z,99384.53
2022-10-28T04:11:25.260Z,99392.09
2022-10-28T04:13:52.021Z,99395.13
2022-10-28T04:16:18.792Z,99395.44
2022-10-28T04:18:45.677Z,99389.19
2022-10-28T04:21:12.531Z,99388.97
2022-10-28T04:23:39.439Z,99379.50
2022-10-28T04:26:06.502Z,99367.41
2022-10-28T04:28:33.338Z,99350.66
2022-10-28T04:31:02.056Z,99352.88
2022-10-28T04:33:29.279Z,99351.28
2022-10-28T04:35:56.037Z,99350.84
2022-10-28T04:40:54.316Z,99342.06
2022-10-28T04:43:21.318Z,99341.94
2022-10-28T04:45:48.055Z,99337.75
2022-10-28T04:48:15.423Z,99337.47
2022-10-28T04:50:43.120Z,99331.50
2022-10-28T04:53:10.547Z,99332.94
2022-10-28T04:55:37.603Z,99337.84
2022-10-28T04:58:04.781Z,99337.34
2022-10-28T05:00:31.774Z,99332.69
2022-10-28T05:03:02.795Z,99322.72
2022-10-28T05:05:29.818Z,99320.78
2022-10-28T05:07:56.942Z,99337.63
2022-10-28T05:10:24.408Z,99335.28
2022-10-28T05:12:51.160Z,99328.53
2022-10-28T05:15:18.172Z,99326.22
2022-10-28T05:17:46.964Z,99334.53
2022-10-28T05:20:16.730Z,99336.63
2022-10-28T05:22:47.681Z,99332.06
2022-10-28T05:25:14.818Z,99326.09
2022-10-28T05:27:41.680Z,99327.56
2022-10-28T05:30:10.272Z,99324.00
2022-10-28T05:32:37.093Z,99320.78
2022-10-28T05:35:04.986Z,99321.88
2022-10-28T05:37:31.937Z,99314.69
2022-10-28T05:39:58.657Z,99313.28
2022-10-28T05:42:25.516Z,99318.13
2022-10-28T05:44:52.253Z,99312.34
2022-10-28T05:47:19.378Z,99324.88
2022-10-28T05:49:46.204Z,99318.16
2022-10-28T05:52:13.027Z,99319.97
2022-10-28T05:54:39.793Z,99319.91
2022-10-28T05:57:06.692Z,99317.94
2022-10-28T05:59:33.581Z,99313.91
2022-10-28T06:02:00.437Z,99314.69
2022-10-28T06:04:27.216Z,99318.88
2022-10-28T06:06:56.204Z,99323.00
2022-10-28T06:09:22.981Z,99320.78
2022-10-28T06:11:48.380Z,99326.47
2022-10-28T06:14:15.148Z,99331.50
2022-10-28T06:16:42.285Z,99346.19
2022-10-28T06:19:09.090Z,99346.94
2022-10-28T06:21:35.878Z,99365.25
2022-10-28T06:24:03.156Z,99380.66
2022-10-28T06:26:30.011Z,99380.66
2022-10-28T06:28:56.828Z,99376.94
2022-10-28T06:31:23.685Z,99382.38
2022-10-28T06:33:50.539Z,99376.09
2022-10-28T06:36:17.370Z,99377.31
2022-10-28T06:38:44.367Z,99370.88
2022-10-28T06:41:11.115Z,99378.69
2022-10-28T06:43:37.972Z,99381.25
2022-10-28T06:46:05.249Z,99366.97
2022-10-28T06:48:33.944Z,99365.38
2022-10-28T06:51:00.858Z,99370.09
2022-10-28T06:53:27.804Z,99371.19
2022-10-28T06:55:56.924Z,99372.44
2022-10-28T06:58:25.610Z,99371.63
2022-10-28T07:00:53.757Z,99376.91
2022-10-28T07:03:21.281Z,99373.97
2022-10-28T07:05:51.376Z,99385.50
2022-10-28T07:08:18.283Z,99383.75
2022-10-28T07:10:45.072Z,99379.31
2022-10-28T07:13:11.844Z,99385.13
2022-10-28T07:15:39.529Z,99392.28
2022-10-28T07:18:06.443Z,99383.66
2022-10-28T07:20:33.196Z,99397.16
2022-10-28T07:23:02.290Z,99391.91
2022-10-28T07:25:31.179Z,99399.28
2022-10-28T07:27:59.481Z,99405.69
2022-10-28T07:30:27.855Z,99399.72
2022-10-28T07:32:55.428Z,99409.06
2022-10-28T07:35:22.768Z,99412.31
2022-10-28T07:37:49.583Z,99408.47
2022-10-28T07:40:16.904Z,99407.53
2022-10-28T07:42:43.660Z,99411.88
2022-10-28T07:45:10.485Z,99407.22
2022-10-28T07:47:37.236Z,99406.41
2022-10-28T07:50:06.865Z,99411.25
2022-10-28T07:52:35.856Z,99403.75
2022-10-28T07:55:05.257Z,99407.13
2022-10-28T07:57:34.822Z,99402.16
2022-10-28T08:00:02.363Z,99391.78
2022-10-28T08:02:29.228Z,99397.56
2022-10-28T08:04:56.940Z,99408.59
2022-10-28T08:07:23.881Z,99406.50
2022-10-28T08:09:52.802Z,99410.22
2022-10-28T08:12:19.614Z,99409.28
2022-10-28T08:14:46.341Z,99396.94
2022-10-28T08:17:13.241Z,99408.66
2022-10-28T08:19:46.053Z,99414.94
2022-10-28T08:22:12.839Z,99414.63
2022-10-28T08:24:39.879Z,99420.91
2022-10-28T08:27:06.692Z,99412.09
2022-10-28T08:29:34.051Z,99413.38
2022-10-28T08:32:00.793Z,99418.69
2022-10-28T08:34:29.750Z,99427.56
2022-10-28T08:36:57.812Z,99428.72
2022-10-28T08:39:25.105Z,99413.66
2022-10-28T08:42:22.502Z,99423.66
2022-10-28T08:45:01.275Z,99406.28
2022-10-28T08:47:44.504Z,99401.63
2022-10-28T08:50:16.305Z,99392.78
2022-10-28T08:53:01.211Z,99409.22
2022-10-28T08:55:39.778Z,99407.97
2022-10-28T08:58:20.094Z,99414.75
2022-10-28T09:00:55.069Z,99400.16
2022-10-28T09:03:40.826Z,99392.09
2022-10-28T09:06:10.364Z,99405.97
2022-10-28T09:08:43.196Z,99406.59
2022-10-28T09:11:24.799Z,99415.28
2022-10-28T09:14:48.456Z,99420.13
2022-10-28T09:17:44.710Z,99405.34
2022-10-28T09:20:29.376Z,99407.44
2022-10-28T09:23:09.324Z,99422.41
2022-10-28T09:25:48.493Z,99415.19
2022-10-28T09:28:39.364Z,99408.47
2022-10-28T09:31:30.541Z,99398.50
2022-10-28T09:34:37.027Z,99403.63
2022-10-28T09:37:24.763Z,99393.03
2022-10-28T09:40:00.705Z,99393.03
2022-10-28T09:45:24.923Z,99383.03
2022-10-28T09:48:20.603Z,99393.34
2022-10-28T09:50:52.800Z,99400.41
2022-10-28T09:53:49.425Z,99398.34
2022-10-28T09:56:16.434Z,99393.19
2022-10-28T09:58:48.312Z,99387.06
2022-10-28T10:01:19.551Z,99393.81
2022-10-28T10:03:51.829Z,99401.38
2022-10-28T10:06:32.394Z,99393.16
2022-10-28T10:09:00.292Z,99401.03
2022-10-28T10:11:45.422Z,99397.00
2022-10-28T10:14:34.185Z,99412.59
2022-10-28T10:17:10.878Z,99409.53
2022-10-28T10:20:11.082Z,99416.78
2022-10-28T10:22:44.782Z,99421.59
2022-10-28T10:25:20.674Z,99415.78
2022-10-28T10:28:13.967Z,99409.84
2022-10-28T10:30:52.586Z,99400.13
2022-10-28T10:33:35.200Z,99407.47
2022-10-28T10:36:14.504Z,99397.56
2022-10-28T10:38:56.886Z,99396.34
2022-10-28T10:41:44.840Z,99395.13
2022-10-28T10:44:20.609Z,99394.59
2022-10-28T10:47:16.421Z,99392.47
2022-10-28T10:49:43.464Z,99401.75
2022-10-28T10:52:24.339Z,99395.03
2022-10-28T10:55:23.817Z,99397.00
2022-10-28T10:57:51.307Z,99392.66
2022-10-28T11:00:23.163Z,99383.75
2022-10-28T11:02:54.974Z,99386.59
2022-10-28T11:05:27.316Z,99391.63
2022-10-28T11:08:05.126Z,99381.78
2022-10-28T11:10:34.574Z,99382.94
2022-10-28T11:13:25.717Z,99374.38
2022-10-28T11:16:06.355Z,99370.28
2022-10-28T11:18:46.887Z,99365.03
2022-10-28T11:21:26.211Z,99365.66
2022-10-28T11:24:10.565Z,99362.16
2022-10-28T11:27:24.211Z,99359.81
2022-10-28T11:29:51.090Z,99385.75
2022-10-28T11:33:08.135Z,99382.09
2022-10-28T11:36:22.798Z,99384.22
2022-10-28T11:39:16.881Z,99365.25
2022-10-28T11:41:49.401Z,99355.41
2022-10-28T11:44:43.661Z,99360.66
2022-10-28T11:47:35.074Z,99361.09
2022-10-28T11:50:18.725Z,99357.72
2022-10-28T11:53:23.203Z,99353.25
2022-10-28T11:56:10.935Z,99344.66
2022-10-28T11:59:16.277Z,99332.31
2022-10-28T12:02:01.233Z,99334.06
2022-10-28T12:04:43.356Z,99334.78
2022-10-28T12:07:33.466Z,99333.66
2022-10-28T12:10:31.412Z,99330.34
2022-10-28T12:13:24.997Z,99336.34
2022-10-28T12:16:00.518Z,99334.03
2022-10-28T12:19:18.421Z,99340.16
2022-10-28T12:22:05.759Z,99334.75
2022-10-28T12:24:37.712Z,99326.88
2022-10-28T12:27:24.075Z,99339.25
2022-10-28T12:30:15.400Z,99338.19
2022-10-28T12:32:46.012Z,99334.88
2022-10-28T12:35:23.924Z,99331.00
2022-10-28T12:38:12.823Z,99324.59
2022-10-28T12:40:56.066Z,99322.03
2022-10-28T12:43:46.561Z,99326.88
2022-10-28T12:47:07.320Z,99328.56
2022-10-28T12:50:08.564Z,99335.38
2022-10-28T12:52:47.627Z,99324.31
2022-10-28T12:57:48.198Z,99310.81
2022-10-28T13:00:27.982Z,99309.38
2022-10-28T13:03:02.058Z,99316.53
2022-10-28T13:06:18.645Z,99307.00
2022-10-28T13:09:23.375Z,99311.44
2022-10-28T13:12:39.006Z,99296.28
2022-10-28T13:15:16.614Z,99295.47
2022-10-28T13:18:22.951Z,99303.38
2022-10-28T13:21:44.858Z,99297.50
2022-10-28T13:24:39.748Z,99308.97
2022-10-28T13:27:14.553Z,99312.94
2022-10-28T13:29:49.424Z,99311.66
2022-10-28T13:32:38.842Z,99314.72
2022-10-28T13:35:22.589Z,99306.31
2022-10-28T13:37:53.004Z,99310.66
2022-10-28T13:40:32.248Z,99307.00
2022-10-28T13:43:01.351Z,99310.03
2022-10-28T13:45:50.392Z,99300.09
2022-10-28T13:48:29.471Z,99295.03
2022-10-28T13:51:11.572Z,99306.06
2022-10-28T13:53:56.532Z,99299.31
2022-10-28T13:56:48.580Z,99301.59
2022-10-28T13:59:15.368Z,99303.66
2022-10-28T14:02:01.570Z,99306.84
2022-10-28T14:04:39.506Z,99303.22
2022-10-28T14:07:21.429Z,99311.81
2022-10-28T14:09:58.579Z,99324.22
2022-10-28T14:12:32.692Z,99316.72
2022-10-28T14:15:30.931Z,99317.59
2022-10-28T14:21:04.763Z,99328.66
2022-10-28T14:23:36.338Z,99331.84
2022-10-28T14:26:05.714Z,99321.81
2022-10-28T14:28:32.608Z,99329.41
2022-10-28T14:31:20.962Z,99323.56
2022-10-28T14:33:53.900Z,99323.97
2022-10-28T14:36:20.637Z,99317.44
2022-10-28T14:38:53.539Z,99312.41
2022-10-28T14:41:47.727Z,99322.97
2022-10-28T14:45:10.172Z,99318.47
2022-10-28T14:48:11.361Z,99313.25
2022-10-28T14:50:51.446Z,99321.72
2022-10-28T14:53:36.255Z,99307.63
2022-10-28T14:56:09.474Z,99301.72
2022-10-28T14:58:44.631Z,99311.16
2022-10-28T15:01:19.257Z,99306.38
2022-10-28T15:03:51.997Z,99308.94
2022-10-28T15:06:46.983Z,99307.19
2022-10-28T15:09:27.316Z,99307.56
2022-10-28T15:12:08.518Z,99301.91
2022-10-28T15:14:56.980Z,99303.69
2022-10-28T15:17:36.611Z,99302.03
2022-10-28T15:20:33.838Z,99304.34
2022-10-28T15:23:18.437Z,99303.03
2022-10-28T15:25:46.020Z,99313.06
2022-10-28T15:28:14.012Z,99307.03
2022-10-28T15:30:46.413Z,99310.06
2022-10-28T15:33:29.239Z,99302.69
2022-10-28T15:36:19.152Z,99303.25
2022-10-28T15:38:49.128Z,99304.97
2022-10-28T15:41:22.022Z,99306.47
2022-10-28T15:43:55.703Z,99299.09
2022-10-28T15:46:24.208Z,99307.59
2022-10-28T15:49:00.837Z,99301.56
2022-10-28T15:51:28.547Z,99304.84
2022-10-28T15:54:11.822Z,99301.44
2022-10-28T15:56:57.551Z,99303.09
2022-10-28T16:00:58.434Z,99304.50
2022-10-28T16:03:46.858Z,99312.66
2022-10-28T16:06:34.002Z,99315.06
2022-10-28T16:09:20.368Z,99320.25
2022-10-28T16:11:56.570Z,99333.69
2022-10-28T16:14:39.216Z,99333.47
2022-10-28T16:17:16.997Z,99333.97
2022-10-28T16:19:54.493Z,99326.41
2022-10-28T16:22:24.267Z,99331.91
2022-10-28T16:24:53.904Z,99335.59
2022-10-28T16:27:27.894Z,99345.31
2022-10-28T16:29:54.759Z,99342.22
2022-10-28T16:32:35.408Z,99349.66
2022-10-28T16:35:04.408Z,99352.31
2022-10-28T16:37:34.250Z,99351.44
2022-10-28T16:40:01.014Z,99353.19
2022-10-28T16:42:28.000Z,99344.47
2022-10-28T16:44:54.930Z,99353.19
2022-10-28T16:47:29.282Z,99357.31
2022-10-28T16:49:57.742Z,99346.19
2022-10-28T16:52:30.345Z,99343.56
2022-10-28T16:54:58.620Z,99359.44
2022-10-28T16:57:26.813Z,99354.97
2022-10-28T16:59:54.413Z,99358.63
2022-10-28T17:02:35.395Z,99356.75
2022-10-28T17:05:07.255Z,99355.81
2022-10-28T17:07:34.021Z,99365.41
2022-10-28T17:10:00.878Z,99366.44
2022-10-28T17:12:27.887Z,99359.56
2022-10-28T17:14:55.120Z,99355.25
2022-10-28T17:17:21.930Z,99356.16
2022-10-28T17:19:48.899Z,99354.25
2022-10-28T17:22:15.869Z,99361.22
2022-10-28T17:24:42.826Z,99368.63
2022-10-28T17:27:09.726Z,99365.22
2022-10-28T17:29:36.678Z,99368.47
2022-10-28T17:32:03.695Z,99374.34
2022-10-28T17:34:30.741Z,99377.28
2022-10-28T17:36:57.832Z,99374.38
2022-10-28T17:39:26.460Z,99368.78
2022-10-28T17:41:54.181Z,99375.72
2022-10-28T17:44:21.448Z,99376.19
2022-10-28T17:46:49.138Z,99374.72
2022-10-28T17:49:15.963Z,99373.59
2022-10-28T17:51:43.210Z,99377.47
2022-10-28T17:54:11.313Z,99376.00
2022-10-28T17:56:40.057Z,99386.03
2022-10-28T17:59:11.352Z,99393.00
2022-10-28T18:01:38.408Z,99386.22
2022-10-28T18:04:06.184Z,99389.16
2022-10-28T18:06:33.244Z,99386.63
2022-10-28T18:09:00.128Z,99397.94
2022-10-28T18:11:27.466Z,99395.19
2022-10-28T18:13:56.342Z,99401.34
2022-10-28T18:16:27.942Z,99402.00
2022-10-28T18:18:55.951Z,99397.66
2022-10-28T18:21:24.669Z,99394.91
2022-10-28T18:23:53.760Z,99403.47
2022-10-28T18:26:21.651Z,99406.06
2022-10-28T18:28:49.532Z,99407.88
2022-10-28T18:31:20.347Z,99407.88
2022-10-28T18:33:49.145Z,99404.50
2022-10-28T18:36:23.128Z,99401.34
2022-10-28T18:38:50.922Z,99403.59
2022-10-28T18:41:25.124Z,99407.81
2022-10-28T18:44:01.233Z,99411.34
2022-10-28T18:46:31.340Z,99413.44
2022-10-28T18:48:58.164Z,99415.53
2022-10-28T18:51:25.220Z,99404.22
2022-10-28T18:53:52.480Z,99399.91
2022-10-28T18:56:23.826Z,99401.88
2022-10-28T18:58:52.198Z,99395.25
2022-10-28T19:01:28.340Z,99398.66
2022-10-28T19:04:02.259Z,99391.09
2022-10-28T19:06:32.628Z,99396.09
2022-10-28T19:09:03.413Z,99396.91
2022-10-28T19:11:32.851Z,99397.41
2022-10-28T19:14:03.321Z,99398.88
2022-10-28T19:16:33.653Z,99392.47
2022-10-28T19:19:04.246Z,99390.53
2022-10-28T19:21:31.586Z,99390.81
2022-10-28T19:23:58.832Z,99392.78
2022-10-28T19:26:25.678Z,99386.47
2022-10-28T19:28:53.059Z,99390.34
2022-10-28T19:31:26.309Z,99397.44
2022-10-28T19:33:54.807Z,99392.31
2022-10-28T19:36:28.488Z,99394.91
2022-10-28T19:38:57.486Z,99393.94
2022-10-28T19:41:30.101Z,99389.25
2022-10-28T19:44:00.238Z,99396.53
2022-10-28T19:46:36.203Z,99398.94
2022-10-28T19:49:06.076Z,99398.28
2022-10-28T19:51:43.340Z,99400.06
2022-10-28T19:54:16.086Z,99396.53
2022-10-28T19:56:45.060Z,99399.59
2022-10-28T19:59:12.126Z,99406.69
2022-10-28T20:01:40.728Z,99410.72
2022-10-28T20:04:10.005Z,99408.00
2022-10-28T20:06:40.653Z,99411.06
2022-10-28T20:09:08.419Z,99411.22
2022-10-28T20:11:39.675Z,99411.38
2022-10-28T20:14:11.445Z,99408.81
2022-10-28T20:16:42.648Z,99416.34
2022-10-28T20:19:10.194Z,99411.38
2022-10-28T20:21:38.113Z,99421.84
2022-10-28T20:24:07.030Z,99417.97
2022-10-28T20:26:37.526Z,99418.28
2022-10-28T20:29:06.498Z,99419.91
2022-10-28T20:31:33.614Z,99422.47
2022-10-28T20:34:03.798Z,99424.25
2022-10-28T20:36:39.257Z,99425.53
2022-10-28T20:39:12.458Z,99433.91
2022-10-28T20:41:41.509Z,99445.34
2022-10-28T20:44:09.035Z,99439.53
2022-10-28T20:46:36.611Z,99451.88
2022-10-28T20:49:05.416Z,99452.00
2022-10-28T20:51:33.426Z,99452.50
2022-10-28T20:54:00.821Z,99445.28
2022-10-28T20:56:43.018Z,99454.09
2022-10-28T20:59:10.009Z,99456.34
2022-10-28T21:01:42.451Z,99461.00
2022-10-28T21:04:11.476Z,99457.28
2022-10-28T21:06:39.783Z,99453.13
2022-10-28T21:09:07.752Z,99452.31
2022-10-28T21:11:34.583Z,99457.78
2022-10-28T21:14:02.079Z,99467.25
2022-10-28T21:16:30.490Z,99465.28
2022-10-28T21:18:59.193Z,99464.66
2022-10-28T21:21:27.769Z,99456.63
2022-10-28T21:23:55.775Z,99458.06
2022-10-28T21:26:22.840Z,99455.97
2022-10-28T21:28:53.392Z,99453.38
2022-10-28T21:31:21.802Z,99452.25
2022-10-28T21:36:21.113Z,99456.09
2022-10-28T21:38:48.053Z,99458.84
2022-10-28T21:41:18.966Z,99457.53
2022-10-28T21:43:49.661Z,99464.88
2022-10-28T21:46:18.661Z,99465.69
2022-10-28T21:48:46.478Z,99457.63
2022-10-28T21:51:15.964Z,99468.38
2022-10-28T21:53:44.976Z,99461.31
2022-10-28T21:56:19.068Z,99465.22
2022-10-28T21:58:49.475Z,99471.97
2022-10-28T22:01:20.881Z,99472.94
2022-10-28T22:03:48.167Z,99478.09
2022-10-28T22:06:15.228Z,99476.78
2022-10-28T22:08:42.772Z,99477.41
2022-10-28T22:11:16.106Z,99483.34
2022-10-28T22:13:43.334Z,99492.91
2022-10-28T22:16:14.131Z,99491.13
2022-10-28T22:18:41.137Z,99484.19
2022-10-28T22:21:12.200Z,99487.41
2022-10-28T22:23:39.710Z,99491.75
2022-10-28T22:26:10.842Z,99487.09
2022-10-28T22:28:38.230Z,99502.19
2022-10-28T22:31:12.486Z,99502.50
2022-10-28T22:33:40.040Z,99500.09
2022-10-28T22:36:10.543Z,99507.72
2022-10-28T22:38:38.149Z,99506.22
2022-10-28T22:41:32.848Z,99509.81
2022-10-28T22:44:01.829Z,99507.91
2022-10-28T22:46:33.533Z,99518.72
2022-10-28T22:49:00.525Z,99516.97
2022-10-28T22:51:27.261Z,99514.88
2022-10-28T22:53:54.134Z,99518.72
2022-10-28T22:56:53.350Z,99522.56
2022-10-28T22:59:20.202Z,99517.00
2022-10-28T23:01:47.117Z,99515.25
2022-10-28T23:04:14.132Z,99510.81
2022-10-28T23:06:41.162Z,99511.13
2022-10-28T23:09:07.872Z,99499.88
2022-10-28T23:11:34.755Z,99499.47
2022-10-28T23:14:01.567Z,99503.50
2022-10-28T23:16:28.300Z,99506.72
2022-10-28T23:18:55.241Z,99504.31
2022-10-28T23:21:25.633Z,99508.34
2022-10-28T23:23:58.403Z,99503.13
2022-10-28T23:26:27.572Z,99490.53
2022-10-28T23:28:58.229Z,99499.63
2022-10-28T23:31:27.399Z,99496.28
2022-10-28T23:33:55.406Z,99502.94
2022-10-28T23:36:22.446Z,99508.06
2022-10-28T23:38:49.323Z,99507.66
2022-10-28T23:41:18.718Z,99505.72
2022-10-28T23:43:48.638Z,99511.13
2022-10-28T23:46:15.775Z,99503.97
2022-10-28T23:48:42.945Z,99501.44
2022-10-28T23:51:09.779Z,99496.78
2022-10-28T23:53:36.869Z,99492.56
2022-10-28T23:56:04.044Z,99485.19
2022-10-28T23:58:30.914Z,99499.63
